Time;durP1;ratioP1;P1;durP2;ratioP2;P2;SDS_P1;SDS_P2;PMS_P1;PMS_P2;Temp;Humidity;BMP_temperature;BMP_pressure;BME280_temperature;BME280_humidity;BME280_pressure;Samples;Min_cycle;Max_cycle;Signal;HPM_P1;HPM_P2
2021/01/20 00:00:43;;;;;;;1.00;0.60;;;;;;;;;;5075683;28;20407;-55
2021/01/20 00:03:10;;;;;;;0.90;0.50;;;;;;;;;;5075469;28;20142;-55
2021/01/20 00:05:37;;;;;;;0.73;0.60;;;;;;;;;;5075468;28;20434;-55
2021/01/20 00:08:03;;;;;;;4.00;0.67;;;;;;;;;;5075244;28;20025;-55
2021/01/20 00:10:30;;;;;;;2.23;0.93;;;;;;;;;;5075272;28;20032;-55
2021/01/20 00:13:03;;;;;;;0.77;0.43;;;;;;;;;;5075237;28;20039;-54
2021/01/20 00:15:30;;;;;;;1.53;0.60;;;;;;;;;;5075268;28;20036;-55
2021/01/20 00:17:57;;;;;;;1.87;0.73;;;;;;;;;;5075256;28;20071;-55
2021/01/20 00:20:24;;;;;;;0.70;0.57;;;;;;;;;;5075031;28;20120;-54
2021/01/20 00:22:51;;;;;;;1.27;0.60;;;;;;;;;;5075028;28;20082;-55
2021/01/20 00:25:19;;;;;;;1.97;0.93;;;;;;;;;;5075284;28;20094;-55
2021/01/20 00:27:45;;;;;;;1.57;0.80;;;;;;;;;;5075017;28;20095;-55
2021/01/20 00:30:12;;;;;;;2.27;0.80;;;;;;;;;;5074983;28;20036;-55
2021/01/20 00:32:39;;;;;;;2.30;0.87;;;;;;;;;;5073694;28;20387;-55
2021/01/20 00:35:07;;;;;;;3.73;1.00;;;;;;;;;;5074860;28;20025;-55
2021/01/20 00:37:34;;;;;;;1.17;0.60;;;;;;;;;;5074830;28;20025;-55
2021/01/20 00:40:01;;;;;;;1.10;0.70;;;;;;;;;;5074609;28;20036;-54
2021/01/20 00:42:28;;;;;;;1.23;0.70;;;;;;;;;;5074712;28;20086;-55
2021/01/20 00:44:55;;;;;;;0.70;0.50;;;;;;;;;;5074733;28;20043;-55
2021/01/20 00:47:22;;;;;;;0.80;0.57;;;;;;;;;;5074585;28;20020;-55
2021/01/20 00:49:49;;;;;;;1.67;0.60;;;;;;;;;;5056598;28;20047;-54
2021/01/20 00:52:15;;;;;;;0.67;0.50;;;;;;;;;;5074408;28;20056;-54
2021/01/20 00:54:42;;;;;;;1.37;0.80;;;;;;;;;;5074681;28;20024;-54
2021/01/20 00:57:09;;;;;;;2.30;0.83;;;;;;;;;;5074270;28;20024;-55
2021/01/20 00:59:36;;;;;;;2.00;0.57;;;;;;;;;;5074321;28;20025;-54
2021/01/20 01:02:02;;;;;;;3.47;0.80;;;;;;;;;;5074179;28;20082;-54
2021/01/20 01:04:29;;;;;;;2.53;1.00;;;;;;;;;;5074365;28;20467;-54
2021/01/20 01:06:56;;;;;;;1.40;0.77;;;;;;;;;;5074197;28;20483;-54
2021/01/20 01:09:23;;;;;;;1.33;0.70;;;;;;;;;;5074249;28;20348;-54
2021/01/20 01:11:49;;;;;;;3.13;0.70;;;;;;;;;;5074084;28;20036;-54
2021/01/20 01:14:16;;;;;;;1.07;0.73;;;;;;;;;;5074008;28;20030;-54
2021/01/20 01:16:43;;;;;;;1.03;0.70;;;;;;;;;;5073949;28;20548;-54
2021/01/20 01:19:10;;;;;;;1.60;0.83;;;;;;;;;;5074012;28;20501;-54
2021/01/20 01:21:37;;;;;;;0.67;0.47;;;;;;;;;;5073935;28;20032;-54
2021/01/20 01:24:04;;;;;;;1.50;0.70;;;;;;;;;;5073817;28;20023;-54
2021/01/20 01:26:31;;;;;;;0.97;0.67;;;;;;;;;;5073749;28;20039;-54
2021/01/20 01:28:58;;;;;;;1.03;0.67;;;;;;;;;;5073691;28;20024;-54
2021/01/20 01:31:25;;;;;;;0.93;0.70;;;;;;;;;;5073852;28;20024;-54
2021/01/20 01:33:52;;;;;;;1.30;0.80;;;;;;;;;;5073792;28;20021;-54
2021/01/20 01:36:18;;;;;;;0.87;0.60;;;;;;;;;;5073748;28;20048;-54
2021/01/20 01:38:45;;;;;;;1.73;0.70;;;;;;;;;;5073443;28;20017;-54
2021/01/20 01:41:12;;;;;;;1.20;0.80;;;;;;;;;;5073388;28;20074;-54
2021/01/20 01:43:38;;;;;;;1.30;0.70;;;;;;;;;;5073126;28;20021;-54
2021/01/20 01:46:05;;;;;;;1.87;0.90;;;;;;;;;;5073519;28;20059;-54
2021/01/20 01:48:32;;;;;;;1.20;0.80;;;;;;;;;;5073304;28;20021;-54
2021/01/20 01:50:59;;;;;;;1.17;0.80;;;;;;;;;;5073198;28;20025;-54
2021/01/20 01:53:26;;;;;;;2.60;0.80;;;;;;;;;;5073338;28;20055;-54
2021/01/20 01:55:52;;;;;;;5.90;1.47;;;;;;;;;;5073269;28;20142;-54
2021/01/20 01:58:19;;;;;;;2.53;1.50;;;;;;;;;;5073310;28;20051;-54
2021/01/20 02:00:46;;;;;;;3.03;1.73;;;;;;;;;;5055503;28;20495;-54
2021/01/20 02:03:13;;;;;;;2.53;1.00;;;;;;;;;;5073113;28;20033;-54
2021/01/20 02:05:39;;;;;;;1.60;1.00;;;;;;;;;;5073117;28;20427;-54
2021/01/20 02:08:07;;;;;;;2.80;1.27;;;;;;;;;;5055054;28;20467;-54
2021/01/20 02:10:33;;;;;;;3.73;0.90;;;;;;;;;;5073182;28;20024;-54
2021/01/20 02:13:14;;;;;;;1.73;0.70;;;;;;;;;;5072993;28;20020;-54
2021/01/20 02:15:58;;;;;;;0.87;0.60;;;;;;;;;;5073001;28;20032;-54
2021/01/20 02:18:35;;;;;;;0.90;0.70;;;;;;;;;;5072893;28;20485;-54
2021/01/20 02:21:09;;;;;;;3.90;1.00;;;;;;;;;;5072933;28;20039;-55
2021/01/20 02:23:40;;;;;;;12.30;5.10;;;;;;;;;;5072955;28;20043;-54
2021/01/20 02:26:25;;;;;;;12.03;4.47;;;;;;;;;;5072917;28;20078;-54
2021/01/20 02:29:10;;;;;;;8.45;4.43;;;;;;;;;;5072843;28;20086;-54
2021/01/20 02:31:39;;;;;;;6.72;3.92;;;;;;;;;;5072811;28;20039;-54
2021/01/20 02:34:08;;;;;;;10.30;3.93;;;;;;;;;;5072805;28;20112;-54
2021/01/20 02:36:36;;;;;;;10.93;4.13;;;;;;;;;;5072681;28;20357;-54
2021/01/20 02:39:03;;;;;;;11.13;4.03;;;;;;;;;;5072692;28;20025;-54
2021/01/20 02:41:31;;;;;;;13.00;3.60;;;;;;;;;;5072736;28;20044;-54
2021/01/20 02:44:01;;;;;;;13.77;4.20;;;;;;;;;;5072646;28;20059;-54
2021/01/20 02:46:28;;;;;;;9.87;4.27;;;;;;;;;;5072778;28;20086;-54
2021/01/20 02:48:56;;;;;;;9.77;3.47;;;;;;;;;;5072865;28;20024;-54
2021/01/20 02:51:46;;;;;;;8.57;3.97;;;;;;;;;;5072510;28;20074;-54
2021/01/20 02:54:14;;;;;;;8.27;3.27;;;;;;;;;;5059980;28;20032;-54
2021/01/20 02:56:44;;;;;;;14.37;4.20;;;;;;;;;;5075028;28;20029;-53
2021/01/20 02:59:11;;;;;;;14.33;4.23;;;;;;;;;;5076533;28;20021;-54
2021/01/20 03:01:39;;;;;;;11.93;3.37;;;;;;;;;;5076711;28;20399;-54
2021/01/20 03:04:07;;;;;;;10.43;3.67;;;;;;;;;;5076708;28;20453;-54
2021/01/20 03:06:35;;;;;;;11.97;3.83;;;;;;;;;;5076426;28;20032;-53
2021/01/20 03:09:02;;;;;;;9.93;3.90;;;;;;;;;;5076401;28;20052;-54
2021/01/20 03:11:29;;;;;;;10.20;3.87;;;;;;;;;;5076387;28;20028;-54
2021/01/20 03:13:56;;;;;;;10.13;4.13;;;;;;;;;;5076385;28;20052;-54
2021/01/20 03:16:28;;;;;;;6.23;3.20;;;;;;;;;;5076267;28;20071;-54
2021/01/20 03:18:55;;;;;;;5.57;3.40;;;;;;;;;;5076774;28;20017;-55
2021/01/20 03:21:22;;;;;;;7.17;3.27;;;;;;;;;;5076192;28;20033;-53
2021/01/20 03:23:49;;;;;;;5.03;2.63;;;;;;;;;;5076213;28;20090;-54
2021/01/20 03:26:15;;;;;;;5.67;2.70;;;;;;;;;;5076242;28;20021;-53
2021/01/20 03:28:42;;;;;;;5.03;3.13;;;;;;;;;;5076150;28;20467;-53
2021/01/20 03:31:09;;;;;;;10.87;3.43;;;;;;;;;;5076163;28;20039;-54
2021/01/20 03:33:36;;;;;;;6.57;3.47;;;;;;;;;;5076093;28;20036;-54
2021/01/20 03:36:02;;;;;;;5.63;2.90;;;;;;;;;;5075888;28;20423;-53
2021/01/20 03:38:29;;;;;;;6.20;2.17;;;;;;;;;;5075788;28;20090;-53
2021/01/20 03:40:56;;;;;;;5.67;2.40;;;;;;;;;;5075760;28;20372;-54
2021/01/20 03:43:23;;;;;;;4.17;2.40;;;;;;;;;;5075784;28;20352;-53
2021/01/20 03:45:49;;;;;;;4.07;2.60;;;;;;;;;;5075868;28;20356;-54
2021/01/20 03:48:16;;;;;;;3.83;2.23;;;;;;;;;;5075687;28;20356;-54
2021/01/20 03:50:43;;;;;;;4.60;2.83;;;;;;;;;;5075559;28;20031;-54
2021/01/20 03:53:10;;;;;;;5.27;3.20;;;;;;;;;;5075616;28;20054;-54
2021/01/20 03:55:36;;;;;;;7.90;2.30;;;;;;;;;;5075757;28;20028;-54
2021/01/20 03:58:03;;;;;;;5.10;2.60;;;;;;;;;;5075450;28;20062;-53
2021/01/20 04:00:30;;;;;;;3.17;2.37;;;;;;;;;;5075709;28;20052;-54
2021/01/20 04:02:57;;;;;;;4.13;2.50;;;;;;;;;;5075439;28;20037;-53
2021/01/20 04:05:24;;;;;;;5.90;2.70;;;;;;;;;;5075359;28;20028;-53
2021/01/20 04:07:50;;;;;;;5.80;2.53;;;;;;;;;;5075134;28;20040;-54
2021/01/20 04:10:17;;;;;;;4.43;2.80;;;;;;;;;;5075381;28;20024;-54
2021/01/20 04:12:44;;;;;;;5.63;3.20;;;;;;;;;;5075360;28;20029;-54
2021/01/20 04:15:11;;;;;;;4.13;2.53;;;;;;;;;;5075196;28;20103;-54
2021/01/20 04:17:38;;;;;;;4.73;2.70;;;;;;;;;;5075270;28;20467;-53
2021/01/20 04:20:06;;;;;;;5.37;2.93;;;;;;;;;;5075215;28;20032;-54
2021/01/20 04:22:33;;;;;;;5.97;2.90;;;;;;;;;;5075064;28;20093;-53
2021/01/20 04:25:00;;;;;;;6.73;2.80;;;;;;;;;;5075053;28;20052;-53
2021/01/20 04:27:28;;;;;;;3.97;2.60;;;;;;;;;;5075074;28;20435;-54
2021/01/20 04:29:54;;;;;;;4.20;2.80;;;;;;;;;;5075038;28;20082;-54
2021/01/20 04:32:21;;;;;;;6.93;2.73;;;;;;;;;;5074856;28;20039;-53
2021/01/20 04:34:48;;;;;;;5.50;3.20;;;;;;;;;;5074799;28;20029;-54
2021/01/20 04:37:15;;;;;;;5.17;2.73;;;;;;;;;;5074925;28;20071;-54
2021/01/20 04:39:42;;;;;;;6.17;2.47;;;;;;;;;;5074617;28;20614;-54
2021/01/20 04:42:09;;;;;;;4.27;2.70;;;;;;;;;;5074722;28;20040;-54
2021/01/20 04:44:35;;;;;;;4.47;3.00;;;;;;;;;;5074640;28;20020;-53
2021/01/20 04:47:04;;;;;;;5.93;3.23;;;;;;;;;;5074584;28;20059;-53
2021/01/20 04:49:34;;;;;;;4.00;2.70;;;;;;;;;;5074536;28;20487;-53
2021/01/20 04:52:03;;;;;;;5.10;2.60;;;;;;;;;;5074525;28;20383;-53
2021/01/20 04:54:31;;;;;;;4.87;2.73;;;;;;;;;;5074517;28;20025;-53
2021/01/20 04:56:57;;;;;;;4.60;2.73;;;;;;;;;;5074454;28;20105;-53
2021/01/20 04:59:33;;;;;;;6.80;3.00;;;;;;;;;;5074313;28;20024;-53
2021/01/20 05:02:00;;;;;;;4.37;2.50;;;;;;;;;;5074665;28;20040;-54
2021/01/20 05:04:27;;;;;;;4.30;2.40;;;;;;;;;;5074455;28;20020;-54
2021/01/20 05:06:54;;;;;;;6.97;2.70;;;;;;;;;;5074310;28;20032;-54
2021/01/20 05:09:21;;;;;;;5.30;3.03;;;;;;;;;;5074255;28;20055;-53
2021/01/20 05:11:48;;;;;;;4.20;2.60;;;;;;;;;;5074139;28;20384;-53
2021/01/20 05:14:15;;;;;;;4.10;2.53;;;;;;;;;;5074183;28;20089;-54
2021/01/20 05:16:43;;;;;;;4.73;2.50;;;;;;;;;;5073957;28;20078;-53
2021/01/20 05:19:10;;;;;;;5.13;2.17;;;;;;;;;;5073430;28;20052;-53
2021/01/20 05:21:37;;;;;;;12.00;5.70;;;;;;;;;;5073861;28;20566;-53
2021/01/20 05:24:22;;;;;;;5.97;3.50;;;;;;;;;;5073887;28;20055;-54
2021/01/20 05:26:49;;;;;;;9.90;3.90;;;;;;;;;;5073804;28;20044;-53
2021/01/20 05:29:16;;;;;;;3.90;2.57;;;;;;;;;;5073719;28;20063;-53
2021/01/20 05:31:43;;;;;;;5.30;2.33;;;;;;;;;;5073676;28;20028;-53
2021/01/20 05:34:26;;;;;;;3.70;2.40;;;;;;;;;;5073468;28;20108;-53
2021/01/20 05:37:05;;;;;;;3.70;2.30;;;;;;;;;;5073441;28;20463;-53
2021/01/20 05:39:32;;;;;;;3.70;1.73;;;;;;;;;;5073430;28;20428;-54
2021/01/20 05:42:02;;;;;;;5.00;3.00;;;;;;;;;;5073807;28;20029;-53
2021/01/20 05:44:29;;;;;;;6.57;3.03;;;;;;;;;;5073509;28;20040;-53
2021/01/20 05:46:55;;;;;;;4.37;2.50;;;;;;;;;;5073467;28;20074;-53
2021/01/20 05:49:27;;;;;;;4.20;2.90;;;;;;;;;;5073357;28;20361;-53
2021/01/20 05:51:54;;;;;;;4.63;2.90;;;;;;;;;;5073562;28;20029;-53
2021/01/20 05:54:33;;;;;;;4.10;2.23;;;;;;;;;;5073239;28;20024;-53
2021/01/20 05:57:13;;;;;;;6.80;2.60;;;;;;;;;;5073296;28;20112;-53
2021/01/20 05:59:40;;;;;;;7.73;3.13;;;;;;;;;;5073262;28;20101;-53
2021/01/20 06:02:08;;;;;;;3.67;2.27;;;;;;;;;;5073276;28;20086;-53
2021/01/20 06:04:36;;;;;;;6.30;2.47;;;;;;;;;;5073247;28;20029;-53
2021/01/20 06:07:04;;;;;;;6.50;3.13;;;;;;;;;;5073196;28;20031;-53
2021/01/20 06:09:31;;;;;;;4.50;2.90;;;;;;;;;;5073011;28;20040;-53
2021/01/20 06:11:57;;;;;;;4.90;2.97;;;;;;;;;;5073169;28;20032;-53
2021/01/20 06:14:24;;;;;;;6.33;3.60;;;;;;;;;;5073154;28;20444;-53
2021/01/20 06:16:54;;;;;;;5.63;3.47;;;;;;;;;;5072979;28;20017;-53
2021/01/20 06:19:21;;;;;;;4.93;3.43;;;;;;;;;;5072896;28;20054;-53
2021/01/20 06:21:49;;;;;;;6.30;3.57;;;;;;;;;;5073000;28;20047;-53
2021/01/20 06:24:19;;;;;;;4.17;2.50;;;;;;;;;;5072887;28;20028;-53
2021/01/20 06:26:49;;;;;;;5.60;3.47;;;;;;;;;;5072791;28;20025;-53
2021/01/20 06:29:17;;;;;;;5.37;3.23;;;;;;;;;;5073071;28;20024;-53
2021/01/20 06:31:45;;;;;;;5.27;2.50;;;;;;;;;;5072074;28;20020;-53
2021/01/20 06:34:12;;;;;;;4.33;2.77;;;;;;;;;;5072765;28;20028;-53
2021/01/20 06:36:38;;;;;;;8.83;2.83;;;;;;;;;;5055067;28;20494;-53
2021/01/20 06:39:23;;;;;;;5.77;3.33;;;;;;;;;;5072743;28;20387;-53
2021/01/20 06:41:50;;;;;;;6.00;3.38;;;;;;;;;;5072792;28;20376;-53
2021/01/20 06:44:17;;;;;;;6.70;3.17;;;;;;;;;;5072705;28;20040;-53
2021/01/20 06:46:53;;;;;;;6.03;3.20;;;;;;;;;;5072589;28;20295;-53
2021/01/20 06:49:19;;;;;;;5.10;3.30;;;;;;;;;;5072787;28;20024;-53
2021/01/20 06:52:05;;;;;;;5.60;3.33;;;;;;;;;;5072468;28;20245;-53
2021/01/20 06:54:42;;;;;;;4.18;2.85;;;;;;;;;;5054917;28;20558;-53
2021/01/20 06:57:47;;;;;;;3.87;2.67;;;;;;;;;;5072735;28;20019;-53
2021/01/20 07:00:16;;;;;;;5.10;3.30;;;;;;;;;;4971748;28;20043;-55
2021/01/20 07:02:59;;;;;;;5.93;3.60;;;;;;;;;;4971612;28;20039;-53
2021/01/20 07:05:38;;;;;;;5.80;3.43;;;;;;;;;;5020961;28;20329;-53
2021/01/20 07:08:05;;;;;;;7.07;2.97;;;;;;;;;;5052322;28;20329;-53
2021/01/20 07:10:52;;;;;;;5.43;3.13;;;;;;;;;;5052534;28;20021;-53
2021/01/20 07:13:20;;;;;;;9.03;3.73;;;;;;;;;;5052303;28;20364;-53
2021/01/20 07:15:48;;;;;;;6.53;3.87;;;;;;;;;;5052405;28;20257;-53
2021/01/20 07:18:15;;;;;;;6.33;2.90;;;;;;;;;;5034499;28;20472;-53
2021/01/20 07:20:43;;;;;;;7.83;3.60;;;;;;;;;;5052390;28;20688;-53
2021/01/20 07:23:10;;;;;;;5.30;3.63;;;;;;;;;;5052274;28;20284;-53
2021/01/20 07:25:37;;;;;;;5.50;3.33;;;;;;;;;;5052371;28;20288;-53
2021/01/20 07:28:04;;;;;;;5.77;3.23;;;;;;;;;;5052207;28;20288;-53
2021/01/20 07:30:30;;;;;;;4.63;3.10;;;;;;;;;;5052288;28;20250;-53
2021/01/20 07:32:58;;;;;;;6.20;3.30;;;;;;;;;;5052310;28;20285;-53
2021/01/20 07:35:26;;;;;;;5.27;3.30;;;;;;;;;;5052195;28;20258;-53
2021/01/20 07:38:02;;;;;;;5.17;3.17;;;;;;;;;;5052364;28;20329;-53
2021/01/20 07:40:30;;;;;;;4.03;2.77;;;;;;;;;;5052150;28;20266;-53
2021/01/20 07:42:56;;;;;;;7.67;3.20;;;;;;;;;;5054685;28;20262;-53
2021/01/20 07:45:31;;;;;;;4.53;3.17;;;;;;;;;;5055910;28;20242;-53
2021/01/20 07:47:58;;;;;;;6.50;3.30;;;;;;;;;;5055687;28;20063;-53
2021/01/20 07:50:40;;;;;;;6.23;3.20;;;;;;;;;;5055782;28;20090;-53
2021/01/20 07:53:10;;;;;;;4.80;2.90;;;;;;;;;;5055496;28;20258;-53
2021/01/20 07:55:37;;;;;;;5.67;3.30;;;;;;;;;;5055520;28;20277;-53
2021/01/20 07:58:04;;;;;;;6.83;3.00;;;;;;;;;;5055440;28;20254;-53
2021/01/20 08:00:31;;;;;;;3.93;2.70;;;;;;;;;;5057870;28;20284;-55
2021/01/20 08:03:00;;;;;;;4.40;2.83;;;;;;;;;;5075888;28;20352;-53
2021/01/20 08:05:33;;;;;;;5.10;2.90;;;;;;;;;;5075432;28;20340;-53
2021/01/20 08:08:20;;;;;;;4.40;2.77;;;;;;;;;;5075400;28;20254;-53
2021/01/20 08:10:47;;;;;;;5.40;3.40;;;;;;;;;;5075509;28;20245;-53
2021/01/20 08:13:15;;;;;;;4.87;2.37;;;;;;;;;;5075276;28;20299;-53
2021/01/20 08:15:43;;;;;;;5.90;3.93;;;;;;;;;;5075420;28;20253;-53
2021/01/20 08:18:13;;;;;;;6.43;3.17;;;;;;;;;;5075246;28;20249;-53
2021/01/20 08:20:40;;;;;;;6.23;3.40;;;;;;;;;;5075098;28;20338;-53
2021/01/20 08:23:15;;;;;;;5.23;3.20;;;;;;;;;;5075022;28;20435;-53
2021/01/20 08:25:42;;;;;;;5.55;3.55;;;;;;;;;;5075375;28;20253;-53
2021/01/20 08:28:16;;;;;;;7.90;3.17;;;;;;;;;;5074964;28;20574;-53
2021/01/20 08:30:43;;;;;;;7.20;3.50;;;;;;;;;;5074897;28;20277;-53
2021/01/20 08:33:10;;;;;;;5.40;3.77;;;;;;;;;;5075044;28;20291;-53
2021/01/20 08:35:39;;;;;;;4.53;2.77;;;;;;;;;;5074892;28;20265;-53
2021/01/20 08:38:06;;;;;;;8.97;4.30;;;;;;;;;;5074764;28;20262;-53
2021/01/20 08:40:34;;;;;;;6.60;3.20;;;;;;;;;;5074844;28;20301;-53
2021/01/20 08:43:00;;;;;;;5.33;3.30;;;;;;;;;;5074890;28;20253;-53
2021/01/20 08:45:33;;;;;;;6.40;3.33;;;;;;;;;;5074634;28;20242;-53
2021/01/20 08:48:09;;;;;;;7.93;4.00;;;;;;;;;;5074669;28;20257;-54
2021/01/20 08:50:37;;;;;;;5.87;3.70;;;;;;;;;;5074631;28;20299;-53
2021/01/20 08:53:05;;;;;;;5.77;3.30;;;;;;;;;;5073865;28;20258;-53
2021/01/20 08:55:33;;;;;;;6.87;3.20;;;;;;;;;;5074094;28;20322;-53
2021/01/20 08:58:18;;;;;;;5.40;3.00;;;;;;;;;;5074419;28;20310;-53
2021/01/20 09:00:45;;;;;;;5.07;3.28;;;;;;;;;;5074447;28;20380;-53
2021/01/20 09:03:19;;;;;;;9.73;3.67;;;;;;;;;;5074284;28;20387;-53
2021/01/20 09:05:46;;;;;;;5.40;3.90;;;;;;;;;;5074394;28;20261;-53
2021/01/20 09:08:14;;;;;;;8.60;4.43;;;;;;;;;;5074125;28;20249;-53
2021/01/20 09:10:41;;;;;;;8.37;4.40;;;;;;;;;;5074125;28;20262;-53
2021/01/20 09:13:08;;;;;;;7.10;4.43;;;;;;;;;;5074052;28;20612;-53
2021/01/20 09:15:35;;;;;;;7.40;4.70;;;;;;;;;;5074057;28;20257;-53
2021/01/20 09:18:02;;;;;;;5.07;3.73;;;;;;;;;;5074124;28;20253;-53
2021/01/20 09:20:28;;;;;;;6.47;3.80;;;;;;;;;;5073966;28;20276;-53
2021/01/20 09:22:55;;;;;;;6.67;3.47;;;;;;;;;;5073961;28;20620;-53
2021/01/20 09:25:22;;;;;;;8.63;3.73;;;;;;;;;;5073950;28;20287;-53
2021/01/20 09:27:49;;;;;;;6.53;3.17;;;;;;;;;;5073857;28;20296;-53
2021/01/20 09:30:16;;;;;;;5.97;3.90;;;;;;;;;;5073781;28;20246;-53
2021/01/20 09:32:42;;;;;;;6.63;4.07;;;;;;;;;;5073629;28;20613;-53
2021/01/20 09:35:10;;;;;;;5.93;3.83;;;;;;;;;;5073843;28;20669;-53
2021/01/20 09:37:38;;;;;;;6.03;3.77;;;;;;;;;;5073577;28;20250;-53
2021/01/20 09:40:06;;;;;;;6.30;3.70;;;;;;;;;;5073657;28;20277;-53
2021/01/20 09:42:33;;;;;;;6.53;3.80;;;;;;;;;;5073561;28;20597;-53
2021/01/20 09:45:00;;;;;;;5.40;3.83;;;;;;;;;;5073522;28;20245;-53
2021/01/20 09:47:27;;;;;;;9.90;4.40;;;;;;;;;;5073192;28;20256;-53
2021/01/20 09:49:53;;;;;;;6.13;4.03;;;;;;;;;;5073567;28;20248;-53
2021/01/20 09:52:25;;;;;;;6.60;4.13;;;;;;;;;;5073261;28;20589;-53
2021/01/20 09:54:54;;;;;;;6.47;4.20;;;;;;;;;;5073095;28;20249;-53
2021/01/20 09:57:22;;;;;;;6.70;4.33;;;;;;;;;;5073527;28;20254;-53
2021/01/20 09:59:49;;;;;;;6.40;4.53;;;;;;;;;;5073161;28;20635;-53
2021/01/20 10:02:16;;;;;;;6.50;3.87;;;;;;;;;;5073478;28;20343;-53
2021/01/20 10:04:43;;;;;;;6.30;3.80;;;;;;;;;;5073049;28;20272;-53
2021/01/20 10:07:10;;;;;;;6.30;4.10;;;;;;;;;;5073038;28;20264;-53
2021/01/20 10:09:39;;;;;;;5.27;3.70;;;;;;;;;;5073084;28;20329;-53
2021/01/20 10:12:07;;;;;;;6.07;4.27;;;;;;;;;;5073068;28;20262;-53
2021/01/20 10:14:34;;;;;;;6.63;3.73;;;;;;;;;;5073246;28;20256;-53
2021/01/20 10:17:01;;;;;;;6.13;3.57;;;;;;;;;;5072994;28;20261;-53
2021/01/20 10:19:27;;;;;;;9.70;4.50;;;;;;;;;;5073046;28;20287;-53
2021/01/20 10:21:54;;;;;;;7.17;4.73;;;;;;;;;;5072881;28;20678;-53
2021/01/20 10:24:21;;;;;;;6.00;3.73;;;;;;;;;;5072903;28;20612;-53
2021/01/20 10:26:48;;;;;;;6.40;3.90;;;;;;;;;;5073013;28;20751;-53
2021/01/20 10:29:15;;;;;;;7.03;3.73;;;;;;;;;;5072878;28;20256;-53
2021/01/20 10:31:42;;;;;;;6.63;3.83;;;;;;;;;;5072772;28;20337;-53
2021/01/20 10:34:10;;;;;;;6.07;3.83;;;;;;;;;;5072825;28;20584;-53
2021/01/20 10:36:37;;;;;;;5.13;3.47;;;;;;;;;;5072908;28;20673;-53
2021/01/20 10:39:05;;;;;;;6.03;3.70;;;;;;;;;;5072728;28;20312;-53
2021/01/20 10:41:31;;;;;;;6.20;3.70;;;;;;;;;;5072812;28;20285;-53
2021/01/20 10:43:58;;;;;;;6.87;4.30;;;;;;;;;;5072831;28;20332;-53
2021/01/20 10:46:25;;;;;;;6.90;3.90;;;;;;;;;;5072719;28;20249;-53
2021/01/20 10:48:55;;;;;;;6.63;4.00;;;;;;;;;;5072633;28;20246;-53
2021/01/20 10:51:22;;;;;;;6.70;4.90;;;;;;;;;;5072657;28;20288;-53
2021/01/20 10:53:56;;;;;;;7.30;5.00;;;;;;;;;;5072429;28;20259;-53
2021/01/20 10:56:22;;;;;;;6.73;4.67;;;;;;;;;;5072698;28;20751;-53
2021/01/20 10:58:49;;;;;;;9.90;4.23;;;;;;;;;;5072853;28;20681;-53
2021/01/20 11:01:16;;;;;;;8.70;5.60;;;;;;;;;;5072613;28;20316;-53
2021/01/20 11:03:44;;;;;;;8.30;5.40;;;;;;;;;;5072560;28;20661;-53
2021/01/20 11:06:11;;;;;;;8.03;4.87;;;;;;;;;;5072461;28;20249;-53
2021/01/20 11:08:38;;;;;;;6.87;5.23;;;;;;;;;;5072568;28;20265;-53
2021/01/20 11:11:06;;;;;;;8.40;5.43;;;;;;;;;;5072398;28;20633;-53
2021/01/20 11:13:33;;;;;;;8.20;5.40;;;;;;;;;;5072409;28;20755;-53
2021/01/20 11:16:02;;;;;;;6.60;5.00;;;;;;;;;;5072437;28;20253;-53
2021/01/20 11:18:32;;;;;;;7.30;4.77;;;;;;;;;;5075825;28;20249;-53
2021/01/20 11:20:59;;;;;;;7.33;4.80;;;;;;;;;;5076153;28;20761;-53
2021/01/20 11:23:35;;;;;;;7.73;4.83;;;;;;;;;;5076166;28;20256;-53
2021/01/20 11:26:04;;;;;;;6.13;3.80;;;;;;;;;;5076189;28;20651;-53
2021/01/20 11:28:31;;;;;;;9.17;5.10;;;;;;;;;;5076339;28;20658;-53
2021/01/20 11:30:58;;;;;;;9.53;5.90;;;;;;;;;;5076179;28;20265;-53
2021/01/20 11:33:25;;;;;;;8.03;4.80;;;;;;;;;;5075956;28;20252;-53
2021/01/20 11:35:52;;;;;;;7.33;5.23;;;;;;;;;;5076038;28;20242;-53
2021/01/20 11:38:19;;;;;;;7.40;5.00;;;;;;;;;;5075990;28;20254;-53
2021/01/20 11:40:46;;;;;;;8.10;5.37;;;;;;;;;;5075789;28;20277;-53
2021/01/20 11:43:12;;;;;;;7.27;5.30;;;;;;;;;;5075980;28;20732;-53
2021/01/20 11:45:40;;;;;;;7.43;4.83;;;;;;;;;;5075897;28;20324;-53
2021/01/20 11:48:07;;;;;;;10.37;5.33;;;;;;;;;;5075766;28;20616;-53
2021/01/20 11:50:34;;;;;;;7.50;5.23;;;;;;;;;;5075922;28;20242;-53
2021/01/20 11:53:02;;;;;;;8.93;5.03;;;;;;;;;;5075613;28;20284;-53
2021/01/20 11:55:29;;;;;;;7.60;4.80;;;;;;;;;;5075571;28;20647;-53
2021/01/20 11:57:55;;;;;;;6.73;4.80;;;;;;;;;;5075512;28;20246;-53
2021/01/20 12:00:22;;;;;;;7.80;5.17;;;;;;;;;;5075480;28;20273;-53
2021/01/20 12:02:49;;;;;;;8.17;5.27;;;;;;;;;;5075649;28;20281;-53
2021/01/20 12:05:17;;;;;;;8.13;5.27;;;;;;;;;;5075588;28;20245;-53
2021/01/20 12:07:45;;;;;;;8.47;6.20;;;;;;;;;;5075386;28;20254;-53
2021/01/20 12:10:15;;;;;;;9.10;6.33;;;;;;;;;;5075612;28;20245;-53
2021/01/20 12:12:43;;;;;;;7.83;6.00;;;;;;;;;;5075297;28;20253;-53
2021/01/20 12:15:10;;;;;;;8.57;5.80;;;;;;;;;;5075341;28;20735;-53
2021/01/20 12:17:37;;;;;;;7.87;5.40;;;;;;;;;;5075212;28;20265;-53
2021/01/20 12:20:08;;;;;;;7.20;4.97;;;;;;;;;;5075167;28;20252;-53
2021/01/20 12:22:35;;;;;;;10.43;6.93;;;;;;;;;;5075162;28;20958;-53
2021/01/20 12:25:01;;;;;;;8.27;5.47;;;;;;;;;;5075535;28;20249;-53
2021/01/20 12:27:31;;;;;;;8.43;4.87;;;;;;;;;;5074940;28;20369;-53
2021/01/20 12:29:58;;;;;;;8.23;5.80;;;;;;;;;;5075301;28;20258;-53
2021/01/20 12:32:25;;;;;;;7.27;5.30;;;;;;;;;;5075019;28;20268;-53
2021/01/20 12:34:52;;;;;;;9.60;5.77;;;;;;;;;;5074834;28;20249;-53
2021/01/20 12:37:19;;;;;;;10.13;5.97;;;;;;;;;;5074968;28;20257;-53
2021/01/20 12:39:45;;;;;;;8.67;6.23;;;;;;;;;;5074822;28;20273;-53
2021/01/20 12:42:12;;;;;;;11.63;7.57;;;;;;;;;;5074847;28;20350;-53
2021/01/20 12:44:39;;;;;;;7.97;5.90;;;;;;;;;;5074785;28;20719;-53
2021/01/20 12:47:06;;;;;;;8.60;5.70;;;;;;;;;;5074628;28;20264;-53
2021/01/20 12:49:33;;;;;;;11.57;6.57;;;;;;;;;;5074799;28;20250;-53
2021/01/20 12:51:59;;;;;;;8.73;6.00;;;;;;;;;;5074526;28;20257;-53
2021/01/20 12:54:26;;;;;;;8.27;5.90;;;;;;;;;;5074600;28;20669;-53
2021/01/20 12:56:53;;;;;;;11.83;6.17;;;;;;;;;;5074620;28;20551;-53
2021/01/20 12:59:27;;;;;;;8.03;6.33;;;;;;;;;;5074571;28;20285;-53
2021/01/20 13:01:53;;;;;;;9.23;6.00;;;;;;;;;;5074087;28;20359;-53
2021/01/20 13:04:20;;;;;;;10.13;6.43;;;;;;;;;;5074290;28;20261;-53
2021/01/20 13:06:48;;;;;;;7.60;6.00;;;;;;;;;;5074378;28;20682;-53
2021/01/20 13:09:15;;;;;;;7.77;5.40;;;;;;;;;;5074343;28;20269;-53
2021/01/20 13:11:44;;;;;;;9.80;6.73;;;;;;;;;;5074220;28;20600;-53
2021/01/20 13:14:11;;;;;;;7.30;5.57;;;;;;;;;;5074218;28;20624;-53
2021/01/20 13:16:38;;;;;;;11.70;6.90;;;;;;;;;;5073976;28;20273;-53
2021/01/20 13:19:05;;;;;;;9.13;6.33;;;;;;;;;;5074059;28;20245;-53
2021/01/20 13:21:34;;;;;;;9.37;7.23;;;;;;;;;;5073854;28;20368;-53
2021/01/20 13:24:00;;;;;;;9.57;6.93;;;;;;;;;;5074217;28;20325;-53
2021/01/20 13:26:27;;;;;;;11.97;8.00;;;;;;;;;;5073873;28;20254;-53
2021/01/20 13:28:54;;;;;;;8.53;6.43;;;;;;;;;;5073757;28;20763;-53
2021/01/20 13:31:21;;;;;;;8.70;6.50;;;;;;;;;;5073947;28;20323;-53
2021/01/20 13:33:47;;;;;;;9.47;6.67;;;;;;;;;;5073734;28;20593;-54
2021/01/20 13:36:14;;;;;;;9.33;6.47;;;;;;;;;;5073647;28;20250;-53
2021/01/20 13:38:41;;;;;;;10.23;5.60;;;;;;;;;;5073483;28;20252;-53
2021/01/20 13:41:08;;;;;;;9.20;6.73;;;;;;;;;;5072995;28;20284;-53
2021/01/20 13:43:35;;;;;;;8.57;6.60;;;;;;;;;;5073489;28;20324;-53
2021/01/20 13:46:02;;;;;;;10.00;7.13;;;;;;;;;;5073512;28;20269;-53
2021/01/20 13:48:28;;;;;;;12.13;6.97;;;;;;;;;;5055718;28;20316;-53
2021/01/20 13:50:55;;;;;;;10.90;8.23;;;;;;;;;;5073336;28;20336;-53
2021/01/20 13:53:22;;;;;;;11.80;8.67;;;;;;;;;;5073328;28;20332;-53
2021/01/20 13:55:49;;;;;;;11.33;7.90;;;;;;;;;;5073526;28;20281;-53
2021/01/20 13:58:16;;;;;;;10.83;7.63;;;;;;;;;;5073246;28;20291;-53
2021/01/20 14:00:42;;;;;;;9.50;6.93;;;;;;;;;;5073140;28;20273;-53
2021/01/20 14:03:09;;;;;;;9.87;7.37;;;;;;;;;;5073502;28;20293;-53
2021/01/20 14:05:36;;;;;;;10.37;7.37;;;;;;;;;;5073308;28;20250;-53
2021/01/20 14:08:03;;;;;;;10.27;7.10;;;;;;;;;;5073075;28;20257;-53
2021/01/20 14:10:30;;;;;;;9.23;6.47;;;;;;;;;;5073300;28;20241;-53
2021/01/20 14:12:56;;;;;;;9.60;6.33;;;;;;;;;;5073232;28;20260;-53
2021/01/20 14:15:23;;;;;;;8.60;6.40;;;;;;;;;;5073138;28;20245;-53
2021/01/20 14:17:50;;;;;;;8.77;6.00;;;;;;;;;;5073101;28;20261;-53
2021/01/20 14:20:17;;;;;;;8.77;6.40;;;;;;;;;;5072884;28;20277;-53
2021/01/20 14:22:43;;;;;;;11.47;6.97;;;;;;;;;;5073097;28;20272;-54
2021/01/20 14:25:10;;;;;;;9.60;6.63;;;;;;;;;;5072969;28;20252;-53
2021/01/20 14:27:37;;;;;;;7.83;5.70;;;;;;;;;;5073189;28;20265;-53
2021/01/20 14:30:04;;;;;;;7.60;5.40;;;;;;;;;;5072936;28;20256;-53
2021/01/20 14:32:31;;;;;;;7.83;4.97;;;;;;;;;;5072840;28;20787;-53
2021/01/20 14:34:58;;;;;;;9.40;5.73;;;;;;;;;;5072590;28;20724;-53
2021/01/20 14:37:25;;;;;;;9.97;6.37;;;;;;;;;;5072698;28;20283;-53
2021/01/20 14:39:51;;;;;;;9.17;5.67;;;;;;;;;;5072889;28;20608;-53
2021/01/20 14:42:18;;;;;;;11.10;6.50;;;;;;;;;;5072755;28;20437;-53
2021/01/20 14:44:45;;;;;;;8.40;6.00;;;;;;;;;;5072701;28;20775;-53
2021/01/20 14:47:12;;;;;;;9.77;6.40;;;;;;;;;;5072746;28;20249;-54